Time;durP1;ratioP1;P1;durP2;ratioP2;P2;SDS_P1;SDS_P2;PMS_P1;PMS_P2;Temp;Humidity;BMP_temperature;BMP_pressure;BME280_temperature;BME280_humidity;BME280_pressure;Samples;Min_cycle;Max_cycle;Signal;HPM_P1;HPM_P2
2021/07/17 00:01:17;;;;;;;2.90;2.60;;;13.90;99.90;;;;;;5072142;28;20091;-58
2021/07/17 00:03:44;;;;;;;3.15;2.55;;;13.80;93.90;;;;;;5071984;28;20029;-58
2021/07/17 00:06:12;;;;;;;2.80;2.60;;;13.90;94.30;;;;;;5072334;28;20380;-62
2021/07/17 00:08:40;;;;;;;2.70;2.50;;;13.90;92.20;;;;;;5071998;28;20043;-62
2021/07/17 00:11:07;;;;;;;3.28;2.60;;;13.80;94.30;;;;;;5072013;28;20092;-61
2021/07/17 00:13:34;;;;;;;2.92;2.40;;;13.80;94.60;;;;;;5072132;28;20036;-61
2021/07/17 00:16:02;;;;;;;2.70;2.50;;;14.00;93.40;;;;;;5072129;28;20070;-62
2021/07/17 00:18:29;;;;;;;4.38;2.80;;;14.00;92.30;;;;;;5075466;28;20021;-62
2021/07/17 00:20:56;;;;;;;2.60;2.40;;;14.20;94.50;;;;;;5075725;28;20020;-60
2021/07/17 00:23:24;;;;;;;5.75;2.60;;;14.00;93.50;;;;;;5075803;28;20028;-60
2021/07/17 00:25:53;;;;;;;2.90;2.70;;;13.90;91.80;;;;;;5075679;28;20036;-62
2021/07/17 00:28:21;;;;;;;3.42;3.03;;;13.90;93.30;;;;;;5075909;28;20016;-61
2021/07/17 00:30:48;;;;;;;4.05;2.92;;;13.70;90.70;;;;;;5075621;28;20052;-61
2021/07/17 00:33:16;;;;;;;3.58;2.70;;;13.80;91.60;;;;;;5075750;28;20078;-60
2021/07/17 00:35:43;;;;;;;3.22;2.70;;;13.90;91.30;;;;;;5075536;28;20028;-64
2021/07/17 00:38:11;;;;;;;2.75;2.60;;;14.00;93.90;;;;;;5075472;28;20020;-62
2021/07/17 00:40:38;;;;;;;3.03;2.83;;;13.70;93.50;;;;;;5075602;28;20028;-63
2021/07/17 00:43:05;;;;;;;2.92;2.72;;;13.80;94.40;;;;;;5075670;28;20032;-62
2021/07/17 00:45:33;;;;;;;2.78;2.58;;;13.90;93.80;;;;;;5075373;28;20385;-62
2021/07/17 00:48:00;;;;;;;3.92;2.42;;;14.00;93.90;;;;;;5075392;28;20056;-61
2021/07/17 00:50:27;;;;;;;2.97;2.78;;;14.40;93.10;;;;;;5075268;28;20495;-59
2021/07/17 00:52:55;;;;;;;2.60;2.40;;;14.40;93.00;;;;;;5075286;28;20468;-62
2021/07/17 00:55:26;;;;;;;4.45;2.47;;;14.60;92.70;;;;;;5075333;28;20423;-64
2021/07/17 00:57:54;;;;;;;2.88;2.63;;;14.70;92.70;;;;;;5075168;28;20036;-63
2021/07/17 01:00:22;;;;;;;3.30;2.70;;;14.60;93.60;;;;;;5075204;28;20024;-62
2021/07/17 01:03:04;;;;;;;5.18;2.38;;;14.60;91.80;;;;;;5075129;28;20027;-60
2021/07/17 01:05:32;;;;;;;3.55;3.25;;;14.40;91.20;;;;;;5075015;28;20431;-63
2021/07/17 01:07:59;;;;;;;2.25;2.15;;;14.40;96.60;;;;;;5075036;28;20025;-61
2021/07/17 01:10:27;;;;;;;2.78;2.58;;;14.50;96.90;;;;;;5074822;28;20103;-62
2021/07/17 01:12:55;;;;;;;2.47;2.28;;;14.60;96.90;;;;;;5074976;28;20441;-64
2021/07/17 01:15:23;;;;;;;2.85;2.65;;;14.80;96.20;;;;;;5074789;28;20029;-61
2021/07/17 01:17:50;;;;;;;2.83;2.55;;;14.90;96.00;;;;;;5074777;28;20025;-63
2021/07/17 01:20:23;;;;;;;3.00;2.80;;;15.10;95.90;;;;;;5074771;28;20017;-63
2021/07/17 01:22:51;;;;;;;4.10;3.80;;;15.20;95.20;;;;;;5074890;28;20026;-63
2021/07/17 01:25:24;;;;;;;3.78;3.53;;;15.50;95.80;;;;;;5074703;28;20103;-63
2021/07/17 01:27:54;;;;;;;3.13;2.90;;;15.20;94.80;;;;;;5074384;28;20095;-62
2021/07/17 01:30:22;;;;;;;3.13;2.90;;;;;;;;;;5074544;28;20021;-62
2021/07/17 01:32:50;;;;;;;3.05;2.75;;;14.30;88.00;;;;;;5074456;28;20025;-64
2021/07/17 01:35:17;;;;;;;3.72;3.42;;;14.30;90.00;;;;;;5074663;28;20025;-61
2021/07/17 01:37:44;;;;;;;2.50;2.40;;;;;;;;;;5074186;28;20036;-61
2021/07/17 01:40:18;;;;;;;4.93;2.70;;;;;;;;;;5074247;28;20090;-63
2021/07/17 01:42:50;;;;;;;2.67;2.47;;;13.90;99.90;;;;;;5074435;28;20017;-63
2021/07/17 01:45:39;;;;;;;2.80;2.70;;;13.90;91.20;;;;;;5074231;28;20024;-61
2021/07/17 01:48:08;;;;;;;2.45;2.33;;;13.90;90.90;;;;;;5074380;28;20024;-61
2021/07/17 01:50:36;;;;;;;8.30;2.47;;;14.00;90.90;;;;;;5073984;28;20024;-59
2021/07/17 01:53:04;;;;;;;4.88;2.70;;;;;;;;;;5074295;28;20060;-60
2021/07/17 01:55:32;;;;;;;2.83;2.70;;;;;;;;;;5074135;28;20024;-63
2021/07/17 01:58:00;;;;;;;3.00;2.80;;;13.90;99.90;;;;;;5073714;28;20033;-62
2021/07/17 02:00:28;;;;;;;2.40;2.30;;;14.20;99.30;;;;;;5073814;28;20494;-62
2021/07/17 02:02:56;;;;;;;2.33;2.30;;;13.90;91.00;;;;;;5073817;28;20021;-62
2021/07/17 02:05:24;;;;;;;2.50;2.30;;;13.80;92.70;;;;;;5073784;28;20044;-61
2021/07/17 02:07:52;;;;;;;2.20;2.20;;;13.90;91.80;;;;;;5073639;28;20070;-59
2021/07/17 02:10:24;;;;;;;2.72;2.53;;;14.20;91.40;;;;;;5073557;28;20021;-60
2021/07/17 02:13:06;;;;;;;10.13;8.73;;;13.80;90.50;;;;;;5073786;28;20099;-56
2021/07/17 02:15:41;;;;;;;2.67;2.47;;;13.80;95.10;;;;;;5073730;28;20035;-61
2021/07/17 02:18:08;;;;;;;2.40;2.20;;;13.70;90.80;;;;;;5073336;28;20115;-59
2021/07/17 02:20:36;;;;;;;2.28;2.17;;;13.80;90.90;;;;;;5073558;28;20552;-59
2021/07/17 02:23:04;;;;;;;2.60;2.50;;;13.70;90.80;;;;;;5073524;28;20117;-59
2021/07/17 02:25:32;;;;;;;2.58;2.47;;;13.80;91.40;;;;;;5073499;28;20025;-61
2021/07/17 02:27:59;;;;;;;2.40;2.30;;;14.00;90.80;;;;;;5073454;28;20104;-60
2021/07/17 02:30:27;;;;;;;2.53;2.33;;;14.10;90.90;;;;;;5072108;28;20229;-60
2021/07/17 02:32:55;;;;;;;1.90;1.90;;;14.20;91.00;;;;;;5073338;28;20052;-59
2021/07/17 02:35:22;;;;;;;2.45;2.25;;;14.20;90.40;;;;;;5073222;28;20021;-59
2021/07/17 02:37:50;;;;;;;2.53;2.33;;;13.90;90.20;;;;;;5073219;28;20103;-58
2021/07/17 02:40:18;;;;;;;2.75;2.60;;;13.70;90.70;;;;;;5072791;28;20066;-58
2021/07/17 02:42:45;;;;;;;2.47;2.38;;;13.80;90.50;;;;;;5073328;28;20469;-58
2021/07/17 02:45:13;;;;;;;2.15;2.05;;;13.80;91.60;;;;;;5073387;28;20107;-58
2021/07/17 02:47:41;;;;;;;2.30;2.20;;;13.80;91.10;;;;;;5073025;28;20021;-56
2021/07/17 02:50:09;;;;;;;2.40;2.20;;;14.10;90.80;;;;;;5073147;28;20371;-57
2021/07/17 02:52:36;;;;;;;2.33;2.13;;;13.70;90.60;;;;;;5073212;28;20031;-57
2021/07/17 02:55:04;;;;;;;2.83;2.63;;;13.60;91.10;;;;;;5073038;28;20028;-58
2021/07/17 02:57:32;;;;;;;2.80;2.60;;;13.80;90.90;;;;;;5072826;28;20386;-58
2021/07/17 03:00:04;;;;;;;2.70;2.20;;;13.80;91.10;;;;;;5073210;28;20044;-59
2021/07/17 03:02:31;;;;;;;1.92;1.83;;;13.70;91.00;;;;;;5072879;28;20017;-58
2021/07/17 03:04:59;;;;;;;4.50;4.13;;;13.60;90.70;;;;;;5072798;28;20509;-60
2021/07/17 03:07:26;;;;;;;2.30;2.20;;;13.70;91.20;;;;;;5072812;28;20465;-58
2021/07/17 03:09:53;;;;;;;3.08;2.20;;;13.80;90.90;;;;;;5072769;28;20017;-57
2021/07/17 03:12:21;;;;;;;7.93;6.55;;;13.90;90.70;;;;;;5072810;28;20042;-60
2021/07/17 03:14:48;;;;;;;3.08;2.20;;;14.00;91.10;;;;;;5072867;28;20021;-61
2021/07/17 03:17:15;;;;;;;4.07;3.78;;;13.60;90.60;;;;;;5072745;28;20021;-59
2021/07/17 03:19:43;;;;;;;2.70;2.60;;;13.50;91.80;;;;;;5072999;28;20029;-60
2021/07/17 03:22:10;;;;;;;2.72;2.40;;;13.60;91.10;;;;;;5072715;28;20024;-60
2021/07/17 03:24:38;;;;;;;3.47;3.28;;;13.50;92.30;;;;;;5072712;28;20025;-59
2021/07/17 03:27:05;;;;;;;2.70;2.60;;;13.40;91.00;;;;;;5072645;28;20100;-58
2021/07/17 03:29:33;;;;;;;3.45;3.22;;;13.60;90.90;;;;;;5072569;28;20488;-56
2021/07/17 03:32:00;;;;;;;3.08;2.90;;;13.90;92.20;;;;;;5072606;28;20021;-58
2021/07/17 03:34:27;;;;;;;2.88;2.70;;;14.00;90.30;;;;;;5072569;28;20016;-59
2021/07/17 03:36:55;;;;;;;2.92;2.65;;;14.00;90.30;;;;;;5072617;28;20052;-57
2021/07/17 03:39:22;;;;;;;2.33;2.20;;;13.90;90.90;;;;;;5072563;28;20024;-59
2021/07/17 03:41:49;;;;;;;2.28;2.28;;;14.00;90.90;;;;;;5072566;28;20366;-58
2021/07/17 03:44:17;;;;;;;2.40;2.30;;;13.90;92.70;;;;;;5072359;28;20017;-57
2021/07/17 03:46:44;;;;;;;2.40;2.30;;;14.10;92.40;;;;;;5072393;28;20025;-58
2021/07/17 03:49:11;;;;;;;2.83;2.72;;;14.40;92.00;;;;;;5072535;28;20024;-56
2021/07/17 03:51:39;;;;;;;2.63;2.50;;;14.10;91.50;;;;;;5074643;28;20029;-59
2021/07/17 03:54:06;;;;;;;2.80;2.63;;;13.90;91.10;;;;;;5076325;28;20410;-55
2021/07/17 03:56:34;;;;;;;2.70;2.60;;;13.90;91.20;;;;;;5076152;28;20044;-59
2021/07/17 03:59:01;;;;;;;2.60;2.50;;;13.70;90.80;;;;;;5076044;28;20020;-56
2021/07/17 04:01:28;;;;;;;2.50;2.30;;;13.60;90.70;;;;;;5074888;28;20127;-58
2021/07/17 04:03:55;;;;;;;2.38;2.28;;;13.60;90.30;;;;;;5075970;28;20044;-56
2021/07/17 04:06:23;;;;;;;2.60;2.50;;;13.70;90.70;;;;;;5076092;28;20028;-58
2021/07/17 04:08:50;;;;;;;2.70;2.60;;;13.80;90.20;;;;;;5075993;28;20031;-59
2021/07/17 04:11:17;;;;;;;2.80;2.70;;;13.90;90.30;;;;;;5076124;28;20017;-57
2021/07/17 04:13:45;;;;;;;2.67;2.47;;;13.70;89.60;;;;;;5075854;28;20176;-58
2021/07/17 04:16:12;;;;;;;2.90;2.80;;;13.80;89.60;;;;;;5075684;28;20146;-57
2021/07/17 04:18:39;;;;;;;3.10;3.00;;;13.80;88.80;;;;;;5075882;28;20437;-57
2021/07/17 04:21:06;;;;;;;3.17;2.90;;;13.60;88.60;;;;;;5075731;28;20378;-59
2021/07/17 04:23:34;;;;;;;2.80;2.70;;;13.50;88.80;;;;;;5075747;28;20412;-58
2021/07/17 04:26:01;;;;;;;2.60;2.50;;;13.60;88.60;;;;;;5075694;28;20025;-58
2021/07/17 04:28:29;;;;;;;2.90;2.20;;;13.50;87.80;;;;;;5075753;28;20024;-60
2021/07/17 04:30:56;;;;;;;2.42;2.33;;;13.60;88.30;;;;;;5075606;28;20020;-55
2021/07/17 04:33:24;;;;;;;2.40;2.30;;;13.60;88.60;;;;;;5075572;28;20020;-57
2021/07/17 04:35:51;;;;;;;2.50;2.40;;;13.70;89.30;;;;;;5075468;28;20396;-57
2021/07/17 04:38:18;;;;;;;2.85;2.75;;;13.60;89.70;;;;;;5075760;28;20024;-58
2021/07/17 04:40:46;;;;;;;2.70;2.60;;;13.50;90.30;;;;;;5075413;28;20029;-59
2021/07/17 04:43:13;;;;;;;2.40;2.30;;;13.30;89.60;;;;;;5075492;28;20016;-56
2021/07/17 04:45:40;;;;;;;2.60;2.50;;;13.00;90.30;;;;;;5075469;28;20024;-58
2021/07/17 04:48:08;;;;;;;2.50;2.40;;;13.00;90.50;;;;;;5075288;28;20042;-58
2021/07/17 04:50:39;;;;;;;2.40;2.30;;;13.10;90.40;;;;;;5075208;28;20020;-57
2021/07/17 04:53:07;;;;;;;2.30;2.30;;;13.10;89.40;;;;;;5075267;28;20029;-58
2021/07/17 04:55:35;;;;;;;2.70;2.50;;;12.90;90.30;;;;;;5075306;28;20107;-57
2021/07/17 04:58:02;;;;;;;2.47;2.38;;;12.90;90.10;;;;;;5075105;28;20075;-57
2021/07/17 05:00:29;;;;;;;2.20;2.10;;;12.90;89.60;;;;;;5075009;28;20048;-58
2021/07/17 05:02:57;;;;;;;2.40;2.20;;;13.00;89.90;;;;;;5074312;28;20028;-59
2021/07/17 05:05:25;;;;;;;2.40;2.30;;;13.20;90.10;;;;;;5075229;28;20024;-59
2021/07/17 05:07:54;;;;;;;2.20;2.10;;;13.10;89.20;;;;;;5074899;28;20546;-57
2021/07/17 05:10:25;;;;;;;2.30;2.20;;;13.10;88.70;;;;;;5075195;28;20036;-58
2021/07/17 05:12:54;;;;;;;2.10;2.10;;;13.10;88.80;;;;;;5075288;28;20032;-56
2021/07/17 05:15:21;;;;;;;2.50;2.40;;;13.00;89.10;;;;;;5075013;28;20020;-57
2021/07/17 05:17:49;;;;;;;3.92;2.50;;;13.10;88.70;;;;;;5074656;28;20043;-58
2021/07/17 05:20:18;;;;;;;2.55;2.45;;;13.00;88.50;;;;;;5074681;28;20031;-60
2021/07/17 05:22:46;;;;;;;2.72;2.50;;;13.00;88.70;;;;;;5074863;28;20021;-58
2021/07/17 05:25:14;;;;;;;2.83;2.70;;;13.00;88.50;;;;;;5074446;28;20028;-58
2021/07/17 05:27:41;;;;;;;2.78;2.50;;;13.00;89.20;;;;;;5074396;28;20134;-60
2021/07/17 05:30:09;;;;;;;2.78;2.58;;;13.00;89.00;;;;;;5074279;28;20440;-59
2021/07/17 05:32:36;;;;;;;2.90;2.70;;;13.10;90.00;;;;;;5074415;28;20025;-57
2021/07/17 05:35:04;;;;;;;3.00;2.80;;;13.00;89.30;;;;;;5074489;28;20021;-58
2021/07/17 05:37:32;;;;;;;2.90;2.80;;;13.00;89.00;;;;;;5074483;28;20021;-59
2021/07/17 05:39:59;;;;;;;3.20;3.00;;;13.10;90.90;;;;;;5074294;28;20021;-60
2021/07/17 05:42:31;;;;;;;3.53;3.10;;;13.00;89.10;;;;;;5074255;28;20020;-59
2021/07/17 05:44:59;;;;;;;2.72;2.55;;;12.90;89.30;;;;;;5073170;28;20025;-59
2021/07/17 05:47:26;;;;;;;2.80;2.70;;;12.70;89.90;;;;;;5074127;28;20052;-59
2021/07/17 05:49:54;;;;;;;3.00;2.67;;;12.60;90.10;;;;;;5073558;28;20485;-60
2021/07/17 05:52:21;;;;;;;2.80;2.70;;;12.50;90.00;;;;;;5074071;28;20418;-60
2021/07/17 05:54:57;;;;;;;2.70;2.50;;;12.50;90.50;;;;;;5073910;28;20481;-58
2021/07/17 05:57:24;;;;;;;2.47;2.28;;;12.40;90.80;;;;;;5073494;28;20049;-59
2021/07/17 05:59:51;;;;;;;2.90;2.70;;;12.40;91.00;;;;;;5073872;28;20489;-59
2021/07/17 06:02:19;;;;;;;2.60;2.50;;;12.60;91.10;;;;;;5073868;28;20028;-60
2021/07/17 06:04:46;;;;;;;3.30;3.10;;;12.70;91.50;;;;;;5072699;28;20031;-59
2021/07/17 06:07:13;;;;;;;3.08;2.97;;;12.80;91.10;;;;;;5073834;28;20023;-59
2021/07/17 06:09:41;;;;;;;2.70;2.60;;;12.80;91.00;;;;;;5073736;28;20036;-59
2021/07/17 06:12:09;;;;;;;3.35;3.25;;;12.80;91.00;;;;;;5073532;28;20396;-59
2021/07/17 06:14:39;;;;;;;2.92;2.80;;;12.90;91.30;;;;;;5072594;28;20489;-60
2021/07/17 06:17:11;;;;;;;;;;;12.90;91.10;;;;;;5073979;28;20029;-60
2021/07/17 06:19:40;;;;;;;3.25;2.90;;;13.00;91.30;;;;;;5073368;28;19940;-60
2021/07/17 06:22:08;;;;;;;3.15;3.05;;;13.00;90.60;;;;;;5073307;28;20502;-60
2021/07/17 06:24:36;;;;;;;2.60;2.50;;;12.90;90.40;;;;;;5073495;28;20484;-59
2021/07/17 06:27:05;;;;;;;2.72;2.50;;;12.80;90.60;;;;;;5073329;28;20032;-61
2021/07/17 06:29:33;;;;;;;2.22;2.13;;;12.80;90.60;;;;;;5073330;28;20119;-60
2021/07/17 06:32:00;;;;;;;2.65;2.53;;;12.80;90.40;;;;;;5073351;28;20031;-60
2021/07/17 06:34:28;;;;;;;2.70;2.50;;;12.70;90.30;;;;;;5073372;28;20052;-58
2021/07/17 06:36:55;;;;;;;2.70;2.50;;;12.70;90.40;;;;;;5073143;28;20115;-60
2021/07/17 06:39:23;;;;;;;2.33;2.20;;;12.60;90.40;;;;;;5073112;28;20048;-59
2021/07/17 06:41:50;;;;;;;2.50;2.30;;;12.50;90.70;;;;;;5073044;28;20512;-60
2021/07/17 06:44:17;;;;;;;2.40;2.30;;;12.50;90.70;;;;;;5073077;28;20380;-60
2021/07/17 06:46:45;;;;;;;2.30;2.20;;;12.40;90.80;;;;;;5072978;28;20036;-60
2021/07/17 06:49:12;;;;;;;2.58;2.40;;;12.30;91.00;;;;;;5072971;28;20028;-59
2021/07/17 06:51:39;;;;;;;2.90;2.60;;;12.20;91.10;;;;;;5073002;28;20024;-60
2021/07/17 06:54:07;;;;;;;2.30;2.10;;;12.20;91.30;;;;;;5072866;28;20024;-59
2021/07/17 06:56:34;;;;;;;2.20;2.10;;;12.10;91.00;;;;;;5072459;28;20052;-60
2021/07/17 06:59:01;;;;;;;2.80;2.70;;;12.10;91.30;;;;;;5072602;28;20600;-62
2021/07/17 07:01:29;;;;;;;3.05;2.83;;;12.00;91.40;;;;;;5072843;28;20109;-60
2021/07/17 07:03:56;;;;;;;2.80;2.70;;;12.00;91.50;;;;;;5072656;28;20389;-59
2021/07/17 07:06:23;;;;;;;2.72;2.55;;;11.90;91.80;;;;;;5072669;28;20016;-60
2021/07/17 07:08:51;;;;;;;3.78;2.90;;;11.80;92.00;;;;;;5072604;28;20052;-60
2021/07/17 07:11:18;;;;;;;2.67;2.50;;;11.80;91.80;;;;;;5072872;28;20104;-60
2021/07/17 07:13:45;;;;;;;2.65;2.55;;;11.80;91.80;;;;;;5072798;28;20032;-60
2021/07/17 07:16:13;;;;;;;2.90;2.80;;;11.80;92.00;;;;;;5072909;28;20481;-60
2021/07/17 07:18:40;;;;;;;3.03;2.83;;;11.80;92.10;;;;;;5072546;28;20118;-59
2021/07/17 07:21:07;;;;;;;2.83;2.60;;;11.70;92.10;;;;;;5072534;28;20090;-61
2021/07/17 07:23:36;;;;;;;3.10;2.80;;;11.70;92.40;;;;;;5072428;28;20032;-58
2021/07/17 07:26:03;;;;;;;2.80;2.60;;;11.70;92.70;;;;;;5073922;28;20095;-60
2021/07/17 07:28:31;;;;;;;2.88;2.72;;;11.60;92.60;;;;;;5077683;28;20021;-58
2021/07/17 07:30:58;;;;;;;4.95;2.92;;;11.60;92.80;;;;;;5077069;28;20037;-59
2021/07/17 07:33:25;;;;;;;3.30;3.10;;;11.60;92.80;;;;;;5076905;28;20446;-60
2021/07/17 07:35:53;;;;;;;3.83;3.50;;;11.50;92.90;;;;;;5077056;28;20028;-60
2021/07/17 07:38:20;;;;;;;4.00;3.70;;;11.50;93.00;;;;;;5076526;28;20025;-59
2021/07/17 07:40:47;;;;;;;3.38;3.17;;;11.50;93.10;;;;;;5076802;28;20024;-60
2021/07/17 07:43:14;;;;;;;3.35;3.00;;;11.50;93.70;;;;;;5076627;28;20416;-59
2021/07/17 07:45:42;;;;;;;3.25;3.05;;;11.40;93.70;;;;;;5076697;28;20020;-60
2021/07/17 07:48:09;;;;;;;2.80;2.60;;;11.40;93.50;;;;;;5076473;28;20017;-59
2021/07/17 07:50:36;;;;;;;3.13;3.00;;;11.50;93.40;;;;;;5076565;28;20050;-59
2021/07/17 07:53:04;;;;;;;3.35;3.15;;;11.40;93.50;;;;;;5076400;28;20037;-61
2021/07/17 07:55:31;;;;;;;3.30;3.10;;;11.40;93.70;;;;;;5074884;28;20032;-60
2021/07/17 07:57:59;;;;;;;3.45;3.25;;;11.40;93.70;;;;;;5076332;28;20473;-60
2021/07/17 08:00:26;;;;;;;3.50;3.20;;;11.30;93.80;;;;;;5076438;28;20493;-60
2021/07/17 08:02:53;;;;;;;3.60;3.30;;;11.30;94.00;;;;;;5076163;28;20145;-58
2021/07/17 08:05:21;;;;;;;3.38;3.17;;;11.30;94.00;;;;;;5076205;28;20491;-59
2021/07/17 08:07:48;;;;;;;3.40;3.20;;;11.30;94.10;;;;;;5076254;28;20046;-59
2021/07/17 08:10:16;;;;;;;3.22;3.03;;;11.30;94.20;;;;;;5076160;28;20024;-61
2021/07/17 08:12:43;;;;;;;2.92;2.78;;;11.20;94.30;;;;;;5076201;28;20115;-59
2021/07/17 08:15:11;;;;;;;3.40;3.10;;;11.20;94.60;;;;;;5075900;28;20476;-60
2021/07/17 08:17:38;;;;;;;3.22;3.13;;;11.20;94.40;;;;;;5075923;28;20345;-60
2021/07/17 08:20:09;;;;;;;3.10;3.00;;;11.20;94.50;;;;;;5075884;28;20096;-59
2021/07/17 08:22:42;;;;;;;4.00;3.70;;;11.10;94.80;;;;;;5075802;28;20476;-60
2021/07/17 08:25:10;;;;;;;3.40;3.20;;;11.10;95.00;;;;;;5075881;28;20520;-60
2021/07/17 08:27:38;;;;;;;3.72;3.20;;;11.10;95.00;;;;;;5075678;28;20016;-59
2021/07/17 08:30:06;;;;;;;2.97;2.78;;;11.10;95.40;;;;;;5075729;28;20020;-60
2021/07/17 08:32:34;;;;;;;3.28;2.97;;;11.10;95.10;;;;;;5075815;28;20085;-60
2021/07/17 08:35:01;;;;;;;3.13;2.85;;;11.10;95.50;;;;;;5077361;28;20017;-58
2021/07/17 08:37:28;;;;;;;3.17;2.97;;;11.00;95.40;;;;;;5074385;28;20021;-60
2021/07/17 08:39:56;;;;;;;3.30;3.20;;;11.10;95.50;;;;;;5075547;28;20093;-60
2021/07/17 08:42:25;;;;;;;3.63;3.42;;;11.00;95.50;;;;;;5075442;28;20477;-60
2021/07/17 08:44:55;;;;;;;2.90;2.80;;;11.00;95.80;;;;;;5075204;28;20024;-59
2021/07/17 08:47:28;;;;;;;2.80;2.60;;;11.00;96.20;;;;;;5075300;28;20025;-59
2021/07/17 08:49:58;;;;;;;3.45;2.70;;;11.00;96.00;;;;;;5075452;28;20025;-61
2021/07/17 08:52:28;;;;;;;2.63;2.45;;;11.00;95.90;;;;;;5075328;28;20081;-61
2021/07/17 08:55:02;;;;;;;2.50;2.40;;;;;;;;;;5073998;28;20072;-61
2021/07/17 08:57:31;;;;;;;3.00;2.80;;;;;;;;;;5074903;28;20076;-60
2021/07/17 08:59:58;;;;;;;3.35;2.60;;;11.20;99.90;;;;;;5074989;28;20044;-60
2021/07/17 09:02:25;;;;;;;4.78;2.80;;;11.10;99.90;;;;;;5074955;28;20473;-58
2021/07/17 09:04:53;;;;;;;2.83;2.50;;;11.20;99.90;;;;;;5075027;28;20024;-59
2021/07/17 09:07:21;;;;;;;2.88;2.60;;;11.20;99.90;;;;;;5074797;28;20496;-59
2021/07/17 09:09:49;;;;;;;2.90;2.70;;;11.10;99.90;;;;;;5074700;28;20103;-59
2021/07/17 09:12:35;;;;;;;2.90;2.70;;;11.10;99.90;;;;;;5073432;28;20535;-60
2021/07/17 09:15:02;;;;;;;2.80;2.70;;;11.00;99.90;;;;;;5074665;28;20025;-59
2021/07/17 09:17:31;;;;;;;3.38;2.90;;;11.00;99.90;;;;;;5074480;28;20056;-60
2021/07/17 09:20:00;;;;;;;3.30;3.03;;;11.10;97.30;;;;;;5074647;28;20017;-59
2021/07/17 09:22:33;;;;;;;2.70;2.50;;;11.00;96.90;;;;;;5074665;28;20031;-60
2021/07/17 09:25:08;;;;;;;3.10;2.70;;;10.90;97.00;;;;;;5074490;28;20488;-58
2021/07/17 09:27:35;;;;;;;2.70;2.60;;;10.90;97.00;;;;;;5074450;28;20031;-58
2021/07/17 09:30:04;;;;;;;3.05;2.80;;;10.90;97.00;;;;;;5074413;28;20024;-59
2021/07/17 09:32:31;;;;;;;2.60;2.50;;;10.90;97.10;;;;;;5074510;28;20036;-59
2021/07/17 09:35:11;;;;;;;2.80;2.70;;;10.90;97.00;;;;;;5074556;28;20025;-59
2021/07/17 09:37:38;;;;;;;2.90;2.70;;;10.90;97.10;;;;;;5074294;28;20040;-59
2021/07/17 09:40:10;;;;;;;3.90;2.85;;;10.90;97.10;;;;;;5074439;28;20017;-59
2021/07/17 09:42:44;;;;;;;2.70;2.50;;;10.90;97.20;;;;;;5074373;28;20032;-59
2021/07/17 09:45:12;;;;;;;2.83;2.65;;;10.90;97.10;;;;;;5074309;28;20017;-60
2021/07/17 09:47:39;;;;;;;2.50;2.40;;;11.10;98.40;;;;;;5074691;28;20028;-61
2021/07/17 09:50:17;;;;;;;3.00;2.80;;;11.00;98.40;;;;;;5073883;28;20024;-59
2021/07/17 09:52:45;;;;;;;2.80;2.67;;;11.00;97.90;;;;;;5074173;28;20028;-58
2021/07/17 09:55:18;;;;;;;3.00;2.80;;;11.00;98.00;;;;;;5074043;28;20027;-60
2021/07/17 09:57:47;;;;;;;3.00;2.80;;;10.90;98.00;;;;;;5073758;28;20055;-60
2021/07/17 10:00:23;;;;;;;2.90;2.80;;;10.90;98.10;;;;;;5073872;28;20031;-59
2021/07/17 10:02:52;;;;;;;2.83;2.63;;;10.80;98.20;;;;;;5073788;28;20389;-60
2021/07/17 10:05:21;;;;;;;2.70;2.60;;;10.90;98.10;;;;;;5073809;28;20032;-60
2021/07/17 10:07:49;;;;;;;2.70;2.60;;;10.80;98.30;;;;;;5073742;28;20078;-60
2021/07/17 10:10:27;;;;;;;2.80;2.60;;;10.90;98.30;;;;;;5073759;28;20031;-60
2021/07/17 10:12:59;;;;;;;3.33;2.60;;;10.80;98.50;;;;;;5073677;28;20146;-60
2021/07/17 10:15:32;;;;;;;2.40;2.30;;;10.80;98.50;;;;;;5073529;28;20025;-60
2021/07/17 10:18:23;;;;;;;2.80;2.70;;;10.80;98.60;;;;;;5073647;28;20074;-58
2021/07/17 10:20:52;;;;;;;2.90;2.80;;;10.90;98.50;;;;;;5073661;28;20199;-60
2021/07/17 10:23:21;;;;;;;2.85;2.75;;;10.80;98.50;;;;;;5073485;28;20070;-60
2021/07/17 10:25:48;;;;;;;2.80;2.70;;;10.80;98.60;;;;;;5073472;28;20074;-60
2021/07/17 10:28:15;;;;;;;2.90;2.80;;;10.70;98.80;;;;;;5073576;28;20021;-58
2021/07/17 10:30:43;;;;;;;3.10;2.90;;;10.70;98.70;;;;;;5073733;28;20029;-60
2021/07/17 10:33:11;;;;;;;2.92;2.72;;;10.70;99.00;;;;;;5073351;28;20388;-60
2021/07/17 10:35:39;;;;;;;2.10;2.10;;;10.60;99.10;;;;;;5073376;28;20107;-60
2021/07/17 10:38:11;;;;;;;2.40;2.40;;;10.70;99.00;;;;;;5073132;28;20082;-61
2021/07/17 10:40:40;;;;;;;2.40;2.40;;;10.70;99.20;;;;;;5073424;28;20024;-60
2021/07/17 10:43:09;;;;;;;2.80;2.70;;;10.60;99.30;;;;;;5073190;28;20103;-60
2021/07/17 10:45:39;;;;;;;2.50;2.40;;;10.70;99.50;;;;;;5073194;28;20469;-59
2021/07/17 10:48:28;;;;;;;2.78;2.67;;;10.70;99.40;;;;;;5073148;28;20503;-59
2021/07/17 10:50:58;;;;;;;2.80;2.70;;;10.60;98.90;;;;;;5073428;28;20035;-60
2021/07/17 10:53:50;;;;;;;2.80;2.60;;;10.60;99.10;;;;;;5073250;28;20153;-60
2021/07/17 10:56:29;;;;;;;2.50;2.40;;;10.60;99.10;;;;;;5072918;28;20048;-60
2021/07/17 10:59:10;;;;;;;2.60;2.50;;;10.60;99.20;;;;;;5073437;28;20024;-60
2021/07/17 11:01:56;;;;;;;2.90;2.80;;;10.70;99.90;;;;;;5072703;28;20047;-59
2021/07/17 11:04:39;;;;;;;2.50;2.40;;;10.60;99.90;;;;;;5072754;28;20122;-59
2021/07/17 11:07:19;;;;;;;2.70;2.60;;;10.70;99.90;;;;;;5072896;28;20476;-60
2021/07/17 11:09:50;;;;;;;2.60;2.50;;;10.60;99.90;;;;;;5073602;28;20021;-60
2021/07/17 11:12:29;;;;;;;2.75;2.65;;;10.60;99.90;;;;;;5072929;28;20028;-59
2021/07/17 11:15:06;;;;;;;2.40;2.30;;;10.50;99.90;;;;;;5072815;28;20040;-59
2021/07/17 11:17:42;;;;;;;2.60;2.50;;;10.60;99.90;;;;;;5072856;28;20101;-62
2021/07/17 11:20:32;;;;;;;2.20;2.20;;;10.50;99.90;;;;;;5072717;28;20025;-61
2021/07/17 11:23:03;;;;;;;2.50;2.40;;;10.60;99.90;;;;;;5072797;28;20473;-60
2021/07/17 11:25:31;;;;;;;2.60;2.50;;;10.60;99.90;;;;;;5072740;28;20020;-59
2021/07/17 11:27:59;;;;;;;2.30;2.30;;;10.50;99.90;;;;;;5072726;28;20387;-60
2021/07/17 11:30:33;;;;;;;2.67;2.58;;;10.50;99.90;;;;;;5072616;28;20027;-61
2021/07/17 11:33:06;;;;;;;2.70;2.60;;;10.50;99.90;;;;;;5072660;28;20060;-60
2021/07/17 11:35:42;;;;;;;2.70;2.60;;;10.40;99.90;;;;;;5072662;28;20040;-60
2021/07/17 11:38:12;;;;;;;2.60;2.50;;;10.60;99.90;;;;;;5072623;28;20025;-60
2021/07/17 11:40:40;;;;;;;2.50;2.40;;;10.50;99.90;;;;;;5072616;28;20370;-60
2021/07/17 11:43:11;;;;;;;2.50;2.40;;;10.60;99.90;;;;;;5072573;28;20381;-59
2021/07/17 11:45:39;;;;;;;2.60;2.50;;;10.50;99.90;;;;;;5072661;28;20431;-61
2021/07/17 11:48:13;;;;;;;2.53;2.45;;;10.50;99.90;;;;;;5072477;28;20503;-61
2021/07/17 11:50:43;;;;;;;2.35;2.25;;;10.50;99.90;;;;;;5072534;28;20495;-60
2021/07/17 11:53:19;;;;;;;2.58;2.47;;;10.40;99.90;;;;;;5072511;28;20024;-60
2021/07/17 11:56:06;;;;;;;2.50;2.40;;;10.40;99.90;;;;;;5072398;28;20048;-61
2021/07/17 11:58:33;;;;;;;2.30;2.20;;;10.60;99.90;;;;;;5072771;28;20099;-59
2021/07/17 12:01:03;;;;;;;2.70;2.60;;;10.60;99.90;;;;;;5072642;28;20021;-60
2021/07/17 12:03:30;;;;;;;2.17;2.17;;;10.60;99.90;;;;;;5072415;28;20376;-60
2021/07/17 12:05:57;;;;;;;2.40;2.30;;;10.60;99.90;;;;;;5072347;28;20023;-60
2021/07/17 12:08:25;;;;;;;2.22;2.22;;;10.60;99.90;;;;;;5072395;28;20024;-60
2021/07/17 12:10:53;;;;;;;2.70;2.60;;;10.60;99.90;;;;;;5072334;28;20074;-60
2021/07/17 12:13:24;;;;;;;2.47;2.38;;;10.70;99.90;;;;;;5075527;28;20438;-61
2021/07/17 12:15:52;;;;;;;2.40;2.40;;;10.80;99.90;;;;;;5076008;28;20016;-61
2021/07/17 12:18:19;;;;;;;2.50;2.40;;;10.70;99.90;;;;;;5075812;28;20028;-62
2021/07/17 12:20:49;;;;;;;2.80;2.70;;;10.60;99.90;;;;;;5075816;28;20020;-61
2021/07/17 12:23:21;;;;;;;3.00;2.90;;;10.60;99.90;;;;;;5075920;28;20021;-62
2021/07/17 12:25:52;;;;;;;2.80;2.70;;;10.50;99.90;;;;;;5075978;28;20423;-62
2021/07/17 12:28:29;;;;;;;3.10;2.90;;;10.50;99.90;;;;;;5075897;28;20024;-61
2021/07/17 12:31:10;;;;;;;2.80;2.70;;;10.40;99.90;;;;;;5076084;28;20029;-62
2021/07/17 12:33:40;;;;;;;2.88;2.78;;;10.50;99.90;;;;;;5075754;28;20133;-61
2021/07/17 12:36:22;;;;;;;3.20;3.10;;;10.50;99.90;;;;;;5075632;28;20020;-61
2021/07/17 12:38:56;;;;;;;2.90;2.80;;;10.50;99.90;;;;;;5075815;28;20028;-62
2021/07/17 12:41:25;;;;;;;2.70;2.60;;;10.50;99.90;;;;;;5075680;28;20043;-60
2021/07/17 12:43:59;;;;;;;2.90;2.80;;;10.50;99.90;;;;;;5075590;28;20017;-60
2021/07/17 12:46:32;;;;;;;2.80;2.70;;;10.50;99.90;;;;;;5075545;28;20012;-62
2021/07/17 12:49:02;;;;;;;2.60;2.50;;;10.50;99.90;;;;;;5075716;28;20104;-61
2021/07/17 12:51:36;;;;;;;2.70;2.60;;;10.40;99.90;;;;;;5075378;28;20024;-59
2021/07/17 12:54:09;;;;;;;2.72;2.63;;;10.40;99.90;;;;;;5075380;28;20054;-62
2021/07/17 12:56:36;;;;;;;2.80;2.70;;;10.40;99.90;;;;;;5075034;28;20048;-61
2021/07/17 12:59:10;;;;;;;2.90;2.80;;;10.50;99.90;;;;;;5075136;28;20056;-61
2021/07/17 13:01:43;;;;;;;2.95;2.85;;;10.40;99.90;;;;;;5075281;28;20027;-60